KDSV/DSV METAR and TAF weather

Enter ICAO airport designator
Station Type Date Time Source
KDSV METAR 2022/06/29 23:54 UTC NOAA

KDSV 292354Z AUTO 29006KT 10SM BKN100 24/11 A3019 RMK AO2 SLP230 T02440111 10272 20239 53004


Station Type Date Time Source
KDSV Decoded METAR 2022/06/29 23:54 UTC NOAA

DANSVILLE MUNICIPAL AIRPORT, NY, United States (KDSV) 42-34N 077-43W 198M
Jun 29, 2022 - 07:54 PM EDT / 2022.06.29 2354 UTC
Wind: from the WNW (290 degrees) at 7 MPH (6 KT):0
Visibility: 10 mile(s):0
Sky conditions: mostly cloudy
Temperature: 75.9 F (24.4 C)
Dew Point: 52.0 F (11.1 C)
Relative Humidity: 43%
Pressure (altimeter): 30.19 in. Hg (1022 hPa)
Pressure tendency: 0.01 inches (0.4 hPa) higher than three hours ago
ob: KDSV 292354Z AUTO 29006KT 10SM BKN100 24/11 A3019 RMK AO2 SLP230 T02440111 10272 20239 53004
cycle: 0

Station Type Date Time Source
KDSV TAF UTC NOAA

Error!

Example: see airport list